sensor_id;sensor_type;location;lat;lon;timestamp;P1;durP1;ratioP1;P2;durP2;ratioP2
6463;SDS011;3265;42.694;23.282;2022-11-20T00:01:32;6.97;;;1.70;;
6463;SDS011;3265;42.694;23.282;2022-11-20T00:03:59;3.47;;;1.58;;
6463;SDS011;3265;42.694;23.282;2022-11-20T00:06:28;7.03;;;1.55;;
6463;SDS011;3265;42.694;23.282;2022-11-20T00:08:55;4.97;;;1.50;;
6463;SDS011;3265;42.694;23.282;2022-11-20T00:11:24;4.13;;;1.77;;
6463;SDS011;3265;42.694;23.282;2022-11-20T00:13:53;8.20;;;1.80;;
6463;SDS011;3265;42.694;23.282;2022-11-20T00:16:24;5.05;;;1.52;;
6463;SDS011;3265;42.694;23.282;2022-11-20T00:18:53;6.22;;;1.90;;
6463;SDS011;3265;42.694;23.282;2022-11-20T00:21:21;2.08;;;1.40;;
6463;SDS011;3265;42.694;23.282;2022-11-20T00:23:49;8.18;;;1.60;;
6463;SDS011;3265;42.694;23.282;2022-11-20T00:26:17;2.30;;;1.65;;
6463;SDS011;3265;42.694;23.282;2022-11-20T00:28:48;4.93;;;1.40;;
6463;SDS011;3265;42.694;23.282;2022-11-20T00:31:16;6.38;;;1.70;;
6463;SDS011;3265;42.694;23.282;2022-11-20T00:33:45;2.22;;;1.35;;
6463;SDS011;3265;42.694;23.282;2022-11-20T00:36:13;2.87;;;1.60;;
6463;SDS011;3265;42.694;23.282;2022-11-20T00:38:41;1.92;;;1.45;;
6463;SDS011;3265;42.694;23.282;2022-11-20T00:41:09;1.45;;;1.33;;
6463;SDS011;3265;42.694;23.282;2022-11-20T00:43:37;2.47;;;1.45;;
6463;SDS011;3265;42.694;23.282;2022-11-20T00:46:04;2.25;;;1.60;;
6463;SDS011;3265;42.694;23.282;2022-11-20T00:48:32;5.72;;;1.73;;
6463;SDS011;3265;42.694;23.282;2022-11-20T00:51:00;2.67;;;1.48;;
6463;SDS011;3265;42.694;23.282;2022-11-20T00:53:27;3.40;;;1.60;;
6463;SDS011;3265;42.694;23.282;2022-11-20T00:55:54;6.75;;;1.52;;
6463;SDS011;3265;42.694;23.282;2022-11-20T00:58:22;4.47;;;1.77;;
6463;SDS011;3265;42.694;23.282;2022-11-20T01:00:50;2.47;;;1.30;;
6463;SDS011;3265;42.694;23.282;2022-11-20T01:03:17;5.15;;;1.60;;
6463;SDS011;3265;42.694;23.282;2022-11-20T01:05:43;4.57;;;1.58;;
6463;SDS011;3265;42.694;23.282;2022-11-20T01:08:12;3.47;;;1.70;;
6463;SDS011;3265;42.694;23.282;2022-11-20T01:10:38;4.10;;;1.52;;
6463;SDS011;3265;42.694;23.282;2022-11-20T01:13:05;4.70;;;1.63;;
6463;SDS011;3265;42.694;23.282;2022-11-20T01:15:49;3.03;;;1.48;;
6463;SDS011;3265;42.694;23.282;2022-11-20T01:18:16;4.53;;;1.83;;
6463;SDS011;3265;42.694;23.282;2022-11-20T01:20:43;4.93;;;1.80;;
6463;SDS011;3265;42.694;23.282;2022-11-20T01:23:10;3.35;;;1.58;;
6463;SDS011;3265;42.694;23.282;2022-11-20T01:25:38;4.95;;;1.77;;
6463;SDS011;3265;42.694;23.282;2022-11-20T01:28:04;6.00;;;1.50;;
6463;SDS011;3265;42.694;23.282;2022-11-20T01:30:31;5.35;;;1.60;;
6463;SDS011;3265;42.694;23.282;2022-11-20T01:32:58;3.25;;;1.40;;
6463;SDS011;3265;42.694;23.282;2022-11-20T01:35:25;2.40;;;1.63;;
6463;SDS011;3265;42.694;23.282;2022-11-20T01:37:51;4.88;;;1.33;;
6463;SDS011;3265;42.694;23.282;2022-11-20T01:40:19;3.95;;;1.63;;
6463;SDS011;3265;42.694;23.282;2022-11-20T01:42:47;2.15;;;1.42;;
6463;SDS011;3265;42.694;23.282;2022-11-20T01:45:46;4.40;;;1.50;;
6463;SDS011;3265;42.694;23.282;2022-11-20T01:48:30;2.40;;;1.35;;
6463;SDS011;3265;42.694;23.282;2022-11-20T01:51:02;2.22;;;1.42;;
6463;SDS011;3265;42.694;23.282;2022-11-20T01:53:33;3.10;;;1.70;;
6463;SDS011;3265;42.694;23.282;2022-11-20T01:56:05;4.18;;;1.73;;
6463;SDS011;3265;42.694;23.282;2022-11-20T01:58:36;3.03;;;1.30;;
6463;SDS011;3265;42.694;23.282;2022-11-20T02:01:06;6.80;;;1.67;;
6463;SDS011;3265;42.694;23.282;2022-11-20T02:03:33;2.20;;;1.33;;
6463;SDS011;3265;42.694;23.282;2022-11-20T02:06:01;2.17;;;1.50;;
6463;SDS011;3265;42.694;23.282;2022-11-20T02:08:35;2.70;;;1.48;;
6463;SDS011;3265;42.694;23.282;2022-11-20T02:11:05;5.07;;;1.55;;
6463;SDS011;3265;42.694;23.282;2022-11-20T02:13:32;2.50;;;1.30;;
6463;SDS011;3265;42.694;23.282;2022-11-20T02:16:08;4.70;;;1.67;;
6463;SDS011;3265;42.694;23.282;2022-11-20T02:18:38;3.27;;;1.50;;
6463;SDS011;3265;42.694;23.282;2022-11-20T02:21:06;4.72;;;1.60;;
6463;SDS011;3265;42.694;23.282;2022-11-20T02:23:41;5.00;;;1.60;;
6463;SDS011;3265;42.694;23.282;2022-11-20T02:26:22;6.07;;;2.03;;
6463;SDS011;3265;42.694;23.282;2022-11-20T02:28:51;4.68;;;1.63;;
6463;SDS011;3265;42.694;23.282;2022-11-20T02:31:18;5.72;;;1.42;;
6463;SDS011;3265;42.694;23.282;2022-11-20T02:33:44;4.72;;;1.70;;
6463;SDS011;3265;42.694;23.282;2022-11-20T02:36:11;3.08;;;1.33;;
6463;SDS011;3265;42.694;23.282;2022-11-20T02:38:41;4.60;;;1.70;;
6463;SDS011;3265;42.694;23.282;2022-11-20T02:41:11;4.72;;;1.75;;
6463;SDS011;3265;42.694;23.282;2022-11-20T02:43:38;3.10;;;1.60;;
6463;SDS011;3265;42.694;23.282;2022-11-20T02:46:07;4.35;;;1.60;;
6463;SDS011;3265;42.694;23.282;2022-11-20T02:48:34;4.57;;;1.80;;
6463;SDS011;3265;42.694;23.282;2022-11-20T02:51:01;3.28;;;1.60;;
6463;SDS011;3265;42.694;23.282;2022-11-20T02:53:28;5.33;;;1.70;;
6463;SDS011;3265;42.694;23.282;2022-11-20T02:55:55;5.60;;;1.87;;
6463;SDS011;3265;42.694;23.282;2022-11-20T02:58:23;3.97;;;1.83;;
6463;SDS011;3265;42.694;23.282;2022-11-20T03:00:50;5.83;;;2.10;;
6463;SDS011;3265;42.694;23.282;2022-11-20T03:03:18;3.40;;;1.90;;
6463;SDS011;3265;42.694;23.282;2022-11-20T03:05:44;3.57;;;1.80;;
6463;SDS011;3265;42.694;23.282;2022-11-20T03:08:11;5.33;;;1.90;;
6463;SDS011;3265;42.694;23.282;2022-11-20T03:10:38;6.93;;;2.00;;
6463;SDS011;3265;42.694;23.282;2022-11-20T03:13:05;4.00;;;2.00;;
6463;SDS011;3265;42.694;23.282;2022-11-20T03:15:33;4.93;;;2.20;;
6463;SDS011;3265;42.694;23.282;2022-11-20T03:18:01;6.63;;;2.30;;
6463;SDS011;3265;42.694;23.282;2022-11-20T03:20:28;14.37;;;2.23;;
6463;SDS011;3265;42.694;23.282;2022-11-20T03:22:55;4.90;;;2.03;;
6463;SDS011;3265;42.694;23.282;2022-11-20T03:25:22;6.27;;;2.10;;
6463;SDS011;3265;42.694;23.282;2022-11-20T03:27:49;3.50;;;1.93;;
6463;SDS011;3265;42.694;23.282;2022-11-20T03:30:15;7.33;;;2.33;;
6463;SDS011;3265;42.694;23.282;2022-11-20T03:32:44;5.73;;;1.80;;
6463;SDS011;3265;42.694;23.282;2022-11-20T03:35:11;4.00;;;1.83;;
6463;SDS011;3265;42.694;23.282;2022-11-20T03:37:38;4.20;;;1.63;;
6463;SDS011;3265;42.694;23.282;2022-11-20T03:40:07;4.00;;;1.83;;
6463;SDS011;3265;42.694;23.282;2022-11-20T03:42:34;5.67;;;1.90;;
6463;SDS011;3265;42.694;23.282;2022-11-20T03:45:13;4.60;;;1.80;;
6463;SDS011;3265;42.694;23.282;2022-11-20T03:47:40;7.20;;;1.93;;
6463;SDS011;3265;42.694;23.282;2022-11-20T03:50:09;7.60;;;2.20;;
6463;SDS011;3265;42.694;23.282;2022-11-20T03:52:38;5.40;;;1.93;;
6463;SDS011;3265;42.694;23.282;2022-11-20T03:55:05;2.97;;;1.63;;
6463;SDS011;3265;42.694;23.282;2022-11-20T03:57:32;4.27;;;1.90;;
6463;SDS011;3265;42.694;23.282;2022-11-20T03:59:59;2.83;;;1.73;;
6463;SDS011;3265;42.694;23.282;2022-11-20T04:02:26;2.17;;;1.40;;
6463;SDS011;3265;42.694;23.282;2022-11-20T04:04:53;5.20;;;1.80;;
6463;SDS011;3265;42.694;23.282;2022-11-20T04:07:21;4.87;;;1.90;;
6463;SDS011;3265;42.694;23.282;2022-11-20T04:09:47;3.40;;;1.77;;
6463;SDS011;3265;42.694;23.282;2022-11-20T04:12:14;4.37;;;1.70;;
6463;SDS011;3265;42.694;23.282;2022-11-20T04:14:41;7.00;;;2.00;;
6463;SDS011;3265;42.694;23.282;2022-11-20T04:17:08;4.97;;;1.67;;
6463;SDS011;3265;42.694;23.282;2022-11-20T04:19:34;5.33;;;1.87;;
6463;SDS011;3265;42.694;23.282;2022-11-20T04:22:01;7.83;;;1.90;;
6463;SDS011;3265;42.694;23.282;2022-11-20T04:24:29;4.77;;;1.70;;
6463;SDS011;3265;42.694;23.282;2022-11-20T04:26:56;1.97;;;1.50;;
6463;SDS011;3265;42.694;23.282;2022-11-20T04:29:23;3.60;;;1.60;;
6463;SDS011;3265;42.694;23.282;2022-11-20T04:31:51;3.13;;;1.70;;
6463;SDS011;3265;42.694;23.282;2022-11-20T04:34:18;3.03;;;1.60;;
6463;SDS011;3265;42.694;23.282;2022-11-20T04:36:44;2.70;;;1.53;;
6463;SDS011;3265;42.694;23.282;2022-11-20T04:39:12;5.30;;;1.63;;
6463;SDS011;3265;42.694;23.282;2022-11-20T04:41:41;3.60;;;1.60;;
6463;SDS011;3265;42.694;23.282;2022-11-20T04:44:09;5.93;;;1.57;;
6463;SDS011;3265;42.694;23.282;2022-11-20T04:46:36;3.77;;;1.50;;
6463;SDS011;3265;42.694;23.282;2022-11-20T04:49:05;2.47;;;1.33;;
6463;SDS011;3265;42.694;23.282;2022-11-20T04:51:32;4.43;;;1.50;;
6463;SDS011;3265;42.694;23.282;2022-11-20T04:53:59;5.87;;;1.57;;
6463;SDS011;3265;42.694;23.282;2022-11-20T04:56:26;3.57;;;1.50;;
6463;SDS011;3265;42.694;23.282;2022-11-20T04:58:54;5.77;;;1.80;;
6463;SDS011;3265;42.694;23.282;2022-11-20T05:01:21;5.03;;;1.47;;
6463;SDS011;3265;42.694;23.282;2022-11-20T05:03:49;2.07;;;1.40;;
6463;SDS011;3265;42.694;23.282;2022-11-20T05:06:17;2.60;;;1.50;;
6463;SDS011;3265;42.694;23.282;2022-11-20T05:08:45;3.43;;;1.53;;
6463;SDS011;3265;42.694;23.282;2022-11-20T05:11:13;1.57;;;1.23;;
6463;SDS011;3265;42.694;23.282;2022-11-20T05:13:41;3.60;;;1.30;;
6463;SDS011;3265;42.694;23.282;2022-11-20T05:16:10;1.90;;;1.33;;
6463;SDS011;3265;42.694;23.282;2022-11-20T05:18:38;3.27;;;1.47;;
6463;SDS011;3265;42.694;23.282;2022-11-20T05:21:06;1.70;;;1.30;;
6463;SDS011;3265;42.694;23.282;2022-11-20T05:23:33;2.97;;;1.30;;
6463;SDS011;3265;42.694;23.282;2022-11-20T05:26:01;3.63;;;1.37;;
6463;SDS011;3265;42.694;23.282;2022-11-20T05:28:28;3.50;;;1.30;;
6463;SDS011;3265;42.694;23.282;2022-11-20T05:31:03;2.43;;;1.30;;
6463;SDS011;3265;42.694;23.282;2022-11-20T05:33:32;5.53;;;1.57;;
6463;SDS011;3265;42.694;23.282;2022-11-20T05:35:59;4.30;;;1.87;;
6463;SDS011;3265;42.694;23.282;2022-11-20T05:38:25;2.20;;;1.50;;
6463;SDS011;3265;42.694;23.282;2022-11-20T05:40:52;4.90;;;1.77;;
6463;SDS011;3265;42.694;23.282;2022-11-20T05:43:19;2.83;;;1.90;;
6463;SDS011;3265;42.694;23.282;2022-11-20T05:45:51;4.10;;;2.43;;
6463;SDS011;3265;42.694;23.282;2022-11-20T05:48:19;6.30;;;1.93;;
6463;SDS011;3265;42.694;23.282;2022-11-20T05:50:47;3.70;;;1.63;;
6463;SDS011;3265;42.694;23.282;2022-11-20T05:53:14;5.63;;;1.87;;
6463;SDS011;3265;42.694;23.282;2022-11-20T05:55:41;4.93;;;2.13;;
6463;SDS011;3265;42.694;23.282;2022-11-20T05:58:08;5.57;;;2.00;;
6463;SDS011;3265;42.694;23.282;2022-11-20T06:00:35;4.80;;;2.00;;
6463;SDS011;3265;42.694;23.282;2022-11-20T06:03:02;5.17;;;2.23;;
6463;SDS011;3265;42.694;23.282;2022-11-20T06:05:29;5.60;;;2.00;;
6463;SDS011;3265;42.694;23.282;2022-11-20T06:07:57;5.17;;;2.10;;
6463;SDS011;3265;42.694;23.282;2022-11-20T06:10:26;4.43;;;1.93;;
6463;SDS011;3265;42.694;23.282;2022-11-20T06:12:53;1.67;;;1.50;;
6463;SDS011;3265;42.694;23.282;2022-11-20T06:15:20;4.00;;;1.60;;
6463;SDS011;3265;42.694;23.282;2022-11-20T06:17:46;7.87;;;2.10;;
6463;SDS011;3265;42.694;23.282;2022-11-20T06:20:13;6.47;;;2.13;;
6463;SDS011;3265;42.694;23.282;2022-11-20T06:22:42;3.17;;;1.93;;
6463;SDS011;3265;42.694;23.282;2022-11-20T06:25:10;6.90;;;2.37;;
6463;SDS011;3265;42.694;23.282;2022-11-20T06:27:37;6.70;;;2.80;;
6463;SDS011;3265;42.694;23.282;2022-11-20T06:30:04;8.20;;;2.87;;
6463;SDS011;3265;42.694;23.282;2022-11-20T06:32:32;5.53;;;3.00;;
6463;SDS011;3265;42.694;23.282;2022-11-20T06:34:59;6.93;;;2.50;;
6463;SDS011;3265;42.694;23.282;2022-11-20T06:37:26;4.30;;;2.10;;
6463;SDS011;3265;42.694;23.282;2022-11-20T06:39:53;7.40;;;2.17;;
6463;SDS011;3265;42.694;23.282;2022-11-20T06:42:21;4.43;;;1.97;;
6463;SDS011;3265;42.694;23.282;2022-11-20T06:44:48;7.07;;;2.60;;
6463;SDS011;3265;42.694;23.282;2022-11-20T06:47:14;6.03;;;2.23;;
6463;SDS011;3265;42.694;23.282;2022-11-20T06:49:41;4.70;;;2.00;;
6463;SDS011;3265;42.694;23.282;2022-11-20T06:52:08;3.67;;;1.67;;
6463;SDS011;3265;42.694;23.282;2022-11-20T06:54:35;2.77;;;1.90;;
6463;SDS011;3265;42.694;23.282;2022-11-20T06:57:02;6.30;;;2.30;;
6463;SDS011;3265;42.694;23.282;2022-11-20T06:59:30;10.23;;;2.40;;
6463;SDS011;3265;42.694;23.282;2022-11-20T07:01:56;4.60;;;2.20;;
6463;SDS011;3265;42.694;23.282;2022-11-20T07:04:23;4.80;;;2.20;;
6463;SDS011;3265;42.694;23.282;2022-11-20T07:06:50;5.70;;;2.40;;
6463;SDS011;3265;42.694;23.282;2022-11-20T07:09:17;5.17;;;1.80;;
6463;SDS011;3265;42.694;23.282;2022-11-20T07:11:44;9.53;;;2.03;;
6463;SDS011;3265;42.694;23.282;2022-11-20T07:14:11;8.87;;;2.40;;
6463;SDS011;3265;42.694;23.282;2022-11-20T07:16:39;7.67;;;2.23;;
6463;SDS011;3265;42.694;23.282;2022-11-20T07:19:06;6.03;;;1.73;;
6463;SDS011;3265;42.694;23.282;2022-11-20T07:21:32;5.77;;;2.00;;
6463;SDS011;3265;42.694;23.282;2022-11-20T07:23:59;5.73;;;2.33;;
6463;SDS011;3265;42.694;23.282;2022-11-20T07:26:26;8.17;;;2.00;;
6463;SDS011;3265;42.694;23.282;2022-11-20T07:28:53;4.77;;;1.93;;
6463;SDS011;3265;42.694;23.282;2022-11-20T07:31:19;3.87;;;1.60;;
6463;SDS011;3265;42.694;23.282;2022-11-20T07:33:48;7.63;;;2.00;;
6463;SDS011;3265;42.694;23.282;2022-11-20T07:36:15;7.30;;;2.07;;
6463;SDS011;3265;42.694;23.282;2022-11-20T07:38:41;6.37;;;2.30;;
6463;SDS011;3265;42.694;23.282;2022-11-20T07:41:08;4.60;;;2.27;;
6463;SDS011;3265;42.694;23.282;2022-11-20T07:43:35;4.77;;;2.00;;
6463;SDS011;3265;42.694;23.282;2022-11-20T07:46:02;5.83;;;2.50;;
6463;SDS011;3265;42.694;23.282;2022-11-20T07:48:29;6.07;;;2.40;;
6463;SDS011;3265;42.694;23.282;2022-11-20T07:50:57;9.43;;;2.53;;
6463;SDS011;3265;42.694;23.282;2022-11-20T07:53:24;8.60;;;2.43;;
6463;SDS011;3265;42.694;23.282;2022-11-20T07:55:51;5.57;;;2.43;;
6463;SDS011;3265;42.694;23.282;2022-11-20T07:58:18;11.50;;;2.40;;
6463;SDS011;3265;42.694;23.282;2022-11-20T08:00:45;5.07;;;2.40;;
6463;SDS011;3265;42.694;23.282;2022-11-20T08:03:12;5.90;;;2.30;;
6463;SDS011;3265;42.694;23.282;2022-11-20T08:05:39;5.50;;;2.23;;
6463;SDS011;3265;42.694;23.282;2022-11-20T08:08:07;7.67;;;2.97;;
6463;SDS011;3265;42.694;23.282;2022-11-20T08:10:34;7.70;;;3.20;;
6463;SDS011;3265;42.694;23.282;2022-11-20T08:13:01;5.10;;;2.80;;
6463;SDS011;3265;42.694;23.282;2022-11-20T08:15:47;5.20;;;2.70;;
6463;SDS011;3265;42.694;23.282;2022-11-20T08:18:16;10.60;;;3.00;;
6463;SDS011;3265;42.694;23.282;2022-11-20T08:20:43;6.17;;;2.90;;
6463;SDS011;3265;42.694;23.282;2022-11-20T08:23:11;6.37;;;2.97;;
6463;SDS011;3265;42.694;23.282;2022-11-20T08:25:38;6.73;;;2.50;;
6463;SDS011;3265;42.694;23.282;2022-11-20T08:28:06;7.77;;;2.33;;
6463;SDS011;3265;42.694;23.282;2022-11-20T08:30:34;9.47;;;4.43;;
6463;SDS011;3265;42.694;23.282;2022-11-20T08:33:02;7.28;;;3.20;;
6463;SDS011;3265;42.694;23.282;2022-11-20T08:35:32;7.70;;;2.90;;
6463;SDS011;3265;42.694;23.282;2022-11-20T08:38:00;10.13;;;2.67;;
6463;SDS011;3265;42.694;23.282;2022-11-20T08:40:28;12.53;;;3.17;;
6463;SDS011;3265;42.694;23.282;2022-11-20T08:42:55;8.33;;;2.97;;
6463;SDS011;3265;42.694;23.282;2022-11-20T08:45:23;7.73;;;2.20;;
6463;SDS011;3265;42.694;23.282;2022-11-20T08:47:50;10.03;;;2.40;;
6463;SDS011;3265;42.694;23.282;2022-11-20T08:50:16;13.50;;;2.93;;
6463;SDS011;3265;42.694;23.282;2022-11-20T08:52:44;9.70;;;2.50;;
6463;SDS011;3265;42.694;23.282;2022-11-20T08:55:10;7.53;;;2.63;;
6463;SDS011;3265;42.694;23.282;2022-11-20T08:57:39;8.67;;;2.80;;
6463;SDS011;3265;42.694;23.282;2022-11-20T09:00:07;6.63;;;2.90;;
6463;SDS011;3265;42.694;23.282;2022-11-20T09:02:34;7.93;;;3.63;;
6463;SDS011;3265;42.694;23.282;2022-11-20T09:05:03;11.53;;;4.07;;
6463;SDS011;3265;42.694;23.282;2022-11-20T09:07:31;11.23;;;3.77;;
6463;SDS011;3265;42.694;23.282;2022-11-20T09:09:58;13.43;;;3.43;;
6463;SDS011;3265;42.694;23.282;2022-11-20T09:12:25;11.13;;;3.63;;
6463;SDS011;3265;42.694;23.282;2022-11-20T09:14:53;9.47;;;3.30;;
6463;SDS011;3265;42.694;23.282;2022-11-20T09:17:21;10.50;;;3.47;;
6463;SDS011;3265;42.694;23.282;2022-11-20T09:19:48;7.87;;;3.43;;
6463;SDS011;3265;42.694;23.282;2022-11-20T09:22:15;10.23;;;3.53;;
6463;SDS011;3265;42.694;23.282;2022-11-20T09:24:41;15.73;;;3.33;;
6463;SDS011;3265;42.694;23.282;2022-11-20T09:27:08;5.37;;;2.30;;
6463;SDS011;3265;42.694;23.282;2022-11-20T09:29:35;8.37;;;3.10;;
6463;SDS011;3265;42.694;23.282;2022-11-20T09:32:04;8.53;;;2.40;;
6463;SDS011;3265;42.694;23.282;2022-11-20T09:34:31;6.43;;;2.20;;
6463;SDS011;3265;42.694;23.282;2022-11-20T09:36:58;5.80;;;2.57;;
6463;SDS011;3265;42.694;23.282;2022-11-20T09:39:25;7.27;;;3.00;;
6463;SDS011;3265;42.694;23.282;2022-11-20T09:41:58;7.27;;;2.43;;
6463;SDS011;3265;42.694;23.282;2022-11-20T09:44:48;8.83;;;3.47;;
6463;SDS011;3265;42.694;23.282;2022-11-20T09:47:28;9.67;;;2.80;;
6463;SDS011;3265;42.694;23.282;2022-11-20T09:50:10;9.90;;;3.70;;
6463;SDS011;3265;42.694;23.282;2022-11-20T09:52:50;8.10;;;3.90;;
6463;SDS011;3265;42.694;23.282;2022-11-20T09:55:28;10.67;;;3.30;;
6463;SDS011;3265;42.694;23.282;2022-11-20T09:57:57;12.00;;;3.90;;
6463;SDS011;3265;42.694;23.282;2022-11-20T10:00:25;8.27;;;3.30;;
6463;SDS011;3265;42.694;23.282;2022-11-20T10:02:58;11.00;;;3.03;;
6463;SDS011;3265;42.694;23.282;2022-11-20T10:05:28;15.03;;;3.43;;
6463;SDS011;3265;42.694;23.282;2022-11-20T10:08:04;8.25;;;3.92;;
6463;SDS011;3265;42.694;23.282;2022-11-20T10:10:40;8.55;;;3.60;;
6463;SDS011;3265;42.694;23.282;2022-11-20T10:13:14;11.18;;;3.60;;
6463;SDS011;3265;42.694;23.282;2022-11-20T10:16:12;13.45;;;3.35;;
6463;SDS011;3265;42.694;23.282;2022-11-20T10:19:04;12.05;;;3.90;;
6463;SDS011;3265;42.694;23.282;2022-11-20T10:21:50;9.25;;;3.20;;
6463;SDS011;3265;42.694;23.282;2022-11-20T10:24:44;12.13;;;3.13;;
6463;SDS011;3265;42.694;23.282;2022-11-20T10:27:29;10.30;;;3.13;;
6463;SDS011;3265;42.694;23.282;2022-11-20T10:30:08;12.13;;;3.38;;
6463;SDS011;3265;42.694;23.282;2022-11-20T10:32:39;11.57;;;3.75;;
6463;SDS011;3265;42.694;23.282;2022-11-20T10:35:16;14.02;;;3.67;;
6463;SDS011;3265;42.694;23.282;2022-11-20T10:37:49;10.10;;;3.40;;
6463;SDS011;3265;42.694;23.282;2022-11-20T10:40:23;13.63;;;4.07;;
6463;SDS011;3265;42.694;23.282;2022-11-20T10:42:59;18.13;;;6.60;;
6463;SDS011;3265;42.694;23.282;2022-11-20T10:45:33;13.65;;;5.15;;
6463;SDS011;3265;42.694;23.282;2022-11-20T10:48:15;17.25;;;6.43;;
6463;SDS011;3265;42.694;23.282;2022-11-20T10:53:42;13.47;;;6.63;;
6463;SDS011;3265;42.694;23.282;2022-11-20T10:56:18;15.90;;;5.70;;
6463;SDS011;3265;42.694;23.282;2022-11-20T10:58:52;20.87;;;6.87;;
6463;SDS011;3265;42.694;23.282;2022-11-20T11:01:29;13.20;;;5.33;;
6463;SDS011;3265;42.694;23.282;2022-11-20T11:03:56;16.70;;;4.37;;
6463;SDS011;3265;42.694;23.282;2022-11-20T11:06:29;8.47;;;3.33;;
6463;SDS011;3265;42.694;23.282;2022-11-20T11:09:04;11.40;;;3.00;;
6463;SDS011;3265;42.694;23.282;2022-11-20T11:11:37;4.20;;;1.80;;
6463;SDS011;3265;42.694;23.282;2022-11-20T11:14:05;4.63;;;2.20;;
6463;SDS011;3265;42.694;23.282;2022-11-20T11:16:32;5.87;;;1.63;;
6463;SDS011;3265;42.694;23.282;2022-11-20T11:19:05;3.47;;;1.40;;
6463;SDS011;3265;42.694;23.282;2022-11-20T11:21:34;7.43;;;1.50;;
6463;SDS011;3265;42.694;23.282;2022-11-20T11:24:14;2.80;;;1.50;;
6463;SDS011;3265;42.694;23.282;2022-11-20T11:26:50;5.20;;;1.73;;
6463;SDS011;3265;42.694;23.282;2022-11-20T11:29:19;5.70;;;1.87;;
6463;SDS011;3265;42.694;23.282;2022-11-20T11:31:46;5.50;;;1.77;;
6463;SDS011;3265;42.694;23.282;2022-11-20T11:34:13;7.47;;;2.10;;
6463;SDS011;3265;42.694;23.282;2022-11-20T11:36:47;3.57;;;1.70;;
6463;SDS011;3265;42.694;23.282;2022-11-20T11:39:18;2.50;;;1.60;;
6463;SDS011;3265;42.694;23.282;2022-11-20T11:41:47;5.67;;;1.70;;
6463;SDS011;3265;42.694;23.282;2022-11-20T11:44:15;4.90;;;2.27;;
6463;SDS011;3265;42.694;23.282;2022-11-20T11:47:03;4.60;;;2.10;;
6463;SDS011;3265;42.694;23.282;2022-11-20T11:49:33;8.03;;;2.03;;
6463;SDS011;3265;42.694;23.282;2022-11-20T11:52:03;2.93;;;1.80;;
6463;SDS011;3265;42.694;23.282;2022-11-20T11:54:35;5.20;;;2.00;;
6463;SDS011;3265;42.694;23.282;2022-11-20T11:57:09;6.93;;;2.03;;
6463;SDS011;3265;42.694;23.282;2022-11-20T11:59:44;6.17;;;2.00;;
6463;SDS011;3265;42.694;23.282;2022-11-20T12:02:27;5.90;;;2.13;;
6463;SDS011;3265;42.694;23.282;2022-11-20T12:05:03;5.17;;;2.37;;
6463;SDS011;3265;42.694;23.282;2022-11-20T12:07:41;9.50;;;2.33;;
6463;SDS011;3265;42.694;23.282;2022-11-20T12:10:13;5.03;;;1.90;;
6463;SDS011;3265;42.694;23.282;2022-11-20T12:12:44;5.60;;;1.90;;
6463;SDS011;3265;42.694;23.282;2022-11-20T12:15:23;8.00;;;1.77;;
6463;SDS011;3265;42.694;23.282;2022-11-20T12:17:55;7.83;;;2.10;;
6463;SDS011;3265;42.694;23.282;2022-11-20T12:20:22;5.13;;;1.90;;
6463;SDS011;3265;42.694;23.282;2022-11-20T12:22:55;5.00;;;1.80;;
6463;SDS011;3265;42.694;23.282;2022-11-20T12:25:26;7.20;;;2.30;;
6463;SDS011;3265;42.694;23.282;2022-11-20T12:28:13;6.03;;;2.33;;
6463;SDS011;3265;42.694;23.282;2022-11-20T12:31:01;4.40;;;2.00;;
6463;SDS011;3265;42.694;23.282;2022-11-20T12:33:53;4.33;;;1.70;;
6463;SDS011;3265;42.694;23.282;2022-11-20T12:36:37;9.97;;;1.60;;
6463;SDS011;3265;42.694;23.282;2022-11-20T12:39:17;4.63;;;1.50;;
6463;SDS011;3265;42.694;23.282;2022-11-20T12:42:03;3.47;;;1.43;;
6463;SDS011;3265;42.694;23.282;2022-11-20T12:45:07;3.43;;;1.60;;
6463;SDS011;3265;42.694;23.282;2022-11-20T12:47:51;2.53;;;1.47;;
6463;SDS011;3265;42.694;23.282;2022-11-20T12:50:44;4.20;;;1.77;;
6463;SDS011;3265;42.694;23.282;2022-11-20T12:53:22;7.83;;;4.63;;
6463;SDS011;3265;42.694;23.282;2022-11-20T12:56:05;9.43;;;4.90;;
6463;SDS011;3265;42.694;23.282;2022-11-20T12:58:46;8.00;;;4.20;;
6463;SDS011;3265;42.694;23.282;2022-11-20T13:01:24;9.27;;;3.60;;
6463;SDS011;3265;42.694;23.282;2022-11-20T13:04:08;10.33;;;4.03;;
6463;SDS011;3265;42.694;23.282;2022-11-20T13:06:45;6.63;;;3.50;;
6463;SDS011;3265;42.694;23.282;2022-11-20T13:09:12;10.03;;;4.23;;
6463;SDS011;3265;42.694;23.282;2022-11-20T13:11:44;8.77;;;3.77;;
6463;SDS011;3265;42.694;23.282;2022-11-20T13:14:23;10.57;;;4.30;;
6463;SDS011;3265;42.694;23.282;2022-11-20T13:16:57;9.53;;;3.53;;
6463;SDS011;3265;42.694;23.282;2022-11-20T13:19:26;10.73;;;3.90;;
6463;SDS011;3265;42.694;23.282;2022-11-20T13:21:54;19.03;;;9.37;;
6463;SDS011;3265;42.694;23.282;2022-11-20T13:24:23;14.27;;;7.30;;
6463;SDS011;3265;42.694;23.282;2022-11-20T13:27:17;7.63;;;4.20;;
6463;SDS011;3265;42.694;23.282;2022-11-20T13:29:46;6.73;;;2.90;;
6463;SDS011;3265;42.694;23.282;2022-11-20T13:32:25;4.03;;;2.60;;
6463;SDS011;3265;42.694;23.282;2022-11-20T13:34:58;8.07;;;2.60;;
6463;SDS011;3265;42.694;23.282;2022-11-20T13:37:28;5.50;;;2.70;;
6463;SDS011;3265;42.694;23.282;2022-11-20T13:40:13;6.23;;;2.90;;
6463;SDS011;3265;42.694;23.282;2022-11-20T13:42:54;5.70;;;2.90;;
6463;SDS011;3265;42.694;23.282;2022-11-20T13:45:24;5.40;;;2.80;;
6463;SDS011;3265;42.694;23.282;2022-11-20T13:47:52;4.40;;;2.50;;
6463;SDS011;3265;42.694;23.282;2022-11-20T13:50:21;9.30;;;2.80;;
6463;SDS011;3265;42.694;23.282;2022-11-20T13:53:05;11.33;;;3.37;;
6463;SDS011;3265;42.694;23.282;2022-11-20T13:55:46;10.50;;;3.90;;
6463;SDS011;3265;42.694;23.282;2022-11-20T13:58:24;10.27;;;4.47;;
6463;SDS011;3265;42.694;23.282;2022-11-20T14:00:58;7.67;;;3.73;;
6463;SDS011;3265;42.694;23.282;2022-11-20T14:03:28;7.53;;;3.37;;
6463;SDS011;3265;42.694;23.282;2022-11-20T14:05:59;14.57;;;5.60;;
6463;SDS011;3265;42.694;23.282;2022-11-20T14:08:31;12.17;;;5.20;;
6463;SDS011;3265;42.694;23.282;2022-11-20T14:11:06;9.50;;;4.60;;
6463;SDS011;3265;42.694;23.282;2022-11-20T14:13:51;11.13;;;5.17;;
6463;SDS011;3265;42.694;23.282;2022-11-20T14:16:23;11.13;;;5.77;;
6463;SDS011;3265;42.694;23.282;2022-11-20T14:18:51;12.83;;;5.63;;
6463;SDS011;3265;42.694;23.282;2022-11-20T14:21:22;14.10;;;5.80;;
6463;SDS011;3265;42.694;23.282;2022-11-20T14:23:52;11.63;;;6.10;;
6463;SDS011;3265;42.694;23.282;2022-11-20T14:26:19;12.30;;;5.73;;
6463;SDS011;3265;42.694;23.282;2022-11-20T14:28:47;13.53;;;5.90;;
6463;SDS011;3265;42.694;23.282;2022-11-20T14:31:21;12.07;;;5.33;;
6463;SDS011;3265;42.694;23.282;2022-11-20T14:33:51;11.87;;;5.40;;
6463;SDS011;3265;42.694;23.282;2022-11-20T14:36:21;7.47;;;3.57;;
6463;SDS011;3265;42.694;23.282;2022-11-20T14:38:50;8.20;;;5.07;;
6463;SDS011;3265;42.694;23.282;2022-11-20T14:41:19;9.57;;;4.70;;
6463;SDS011;3265;42.694;23.282;2022-11-20T14:43:47;4.80;;;2.33;;
6463;SDS011;3265;42.694;23.282;2022-11-20T14:46:21;5.13;;;2.50;;
6463;SDS011;3265;42.694;23.282;2022-11-20T14:48:49;5.97;;;2.13;;
6463;SDS011;3265;42.694;23.282;2022-11-20T14:51:23;7.83;;;3.37;;
6463;SDS011;3265;42.694;23.282;2022-11-20T14:53:54;8.33;;;4.50;;
6463;SDS011;3265;42.694;23.282;2022-11-20T14:56:21;10.03;;;5.13;;
6463;SDS011;3265;42.694;23.282;2022-11-20T14:58:55;4.97;;;3.83;;
6463;SDS011;3265;42.694;23.282;2022-11-20T15:01:26;10.97;;;6.03;;
6463;SDS011;3265;42.694;23.282;2022-11-20T15:03:59;11.17;;;7.47;;
6463;SDS011;3265;42.694;23.282;2022-11-20T15:06:28;12.40;;;7.57;;
6463;SDS011;3265;42.694;23.282;2022-11-20T15:08:56;10.70;;;7.10;;
6463;SDS011;3265;42.694;23.282;2022-11-20T15:11:25;16.17;;;9.73;;
6463;SDS011;3265;42.694;23.282;2022-11-20T15:13:55;12.43;;;7.67;;
6463;SDS011;3265;42.694;23.282;2022-11-20T15:16:23;14.03;;;8.27;;
6463;SDS011;3265;42.694;23.282;2022-11-20T15:18:54;22.80;;;13.17;;
6463;SDS011;3265;42.694;23.282;2022-11-20T15:21:21;23.67;;;13.83;;